Weather at Bierset airport - EBLG


metar: EBLG 250050Z 07003KT CAVOK 12/10 Q1012 NOSIG

28 minuten geleden, om 00:50 UTC, de wind blies met windsnelheden van 1.5 meter per seconde(3.5 mijl per uur) vanuit Oost-noordoost nabij Bierset airport. De temperatuur was 12 °C (54 °F), en de barometerdruk was 1,012 hPa (29.88 inHg). De relatieve vochtigheid was 87.6%. Er is geen bewolking beneden 1,524 meter (5,000 voet). De zichtbaarheid was >10 kilometer (>6.2 mijl).

temperature image   windir image sky image 

Last 24 hour graph Bierset airport - EBLG